Time;durP1;ratioP1;P1;durP2;ratioP2;P2;SDS_P1;SDS_P2;PMS_P1;PMS_P2;Temp;Humidity;BMP_temperature;BMP_pressure;BME280_temperature;BME280_humidity;BME280_pressure;Samples;Min_cycle;Max_cycle;Signal;HPM_P1;HPM_P2
2021/04/14 00:00:11;;;;;;;5.67;2.73;;;;;;;;;;5071652;28;20483;-63
2021/04/14 00:02:37;;;;;;;6.67;3.03;;;;;;;;;;5071411;28;20929;-63
2021/04/14 00:05:06;;;;;;;5.63;3.03;;;;;;;;;;5071813;28;20530;-63
2021/04/14 00:07:32;;;;;;;6.13;3.60;;;;;;;;;;5071996;28;20504;-63
2021/04/14 00:09:59;;;;;;;6.60;3.37;;;;;;;;;;5071603;28;20497;-63
2021/04/14 00:12:25;;;;;;;5.87;2.93;;;;;;;;;;5071824;28;20455;-64
2021/04/14 00:14:53;;;;;;;5.30;2.87;;;;;;;;;;5071575;28;20466;-64
2021/04/14 00:17:19;;;;;;;6.10;3.40;;;;;;;;;;5071591;28;20447;-64
2021/04/14 00:19:46;;;;;;;7.03;3.07;;;;;;;;;;5071568;28;20490;-63
2021/04/14 00:22:12;;;;;;;5.73;3.30;;;;;;;;;;5071587;28;20509;-63
2021/04/14 00:24:39;;;;;;;5.57;3.80;;;;;;;;;;5071591;28;20471;-64
2021/04/14 00:27:05;;;;;;;5.63;4.00;;;;;;;;;;5071227;28;20458;-64
2021/04/14 00:29:32;;;;;;;6.73;3.50;;;;;;;;;;5071282;28;20560;-62
2021/04/14 00:31:59;;;;;;;8.30;4.00;;;;;;;;;;5071812;28;20520;-64
2021/04/14 00:34:26;;;;;;;5.77;3.57;;;;;;;;;;5071300;28;21197;-64
2021/04/14 00:36:52;;;;;;;5.23;3.43;;;;;;;;;;5071636;28;20439;-64
2021/04/14 00:39:20;;;;;;;9.10;3.73;;;;;;;;;;5070969;28;20491;-64
2021/04/14 00:41:47;;;;;;;5.93;3.73;;;;;;;;;;5071182;28;20462;-64
2021/04/14 00:44:13;;;;;;;8.40;3.93;;;;;;;;;;5071407;28;20467;-64
2021/04/14 00:46:40;;;;;;;6.57;3.70;;;;;;;;;;5071680;28;20451;-64
2021/04/14 00:49:07;;;;;;;5.30;3.57;;;;;;;;;;5071082;28;20447;-63
2021/04/14 00:51:34;;;;;;;5.60;3.83;;;;;;;;;;5071186;28;20447;-63
2021/04/14 00:54:01;;;;;;;8.20;4.00;;;;;;;;;;5071216;28;20463;-64
2021/04/14 00:56:27;;;;;;;6.80;3.97;;;;;;;;;;5071124;28;20497;-64
2021/04/14 00:58:54;;;;;;;10.83;4.47;;;;;;;;;;5071190;28;20474;-64
2021/04/14 01:01:21;;;;;;;7.10;4.30;;;;;;;;;;5071287;28;20447;-63
2021/04/14 01:03:47;;;;;;;9.60;4.47;;;;;;;;;;5071047;28;20463;-64
2021/04/14 01:06:17;;;;;;;6.80;4.00;;;;;;;;;;5071384;28;20499;-64
2021/04/14 01:08:44;;;;;;;9.70;3.80;;;;;;;;;;5071171;28;20496;-63
2021/04/14 01:11:11;;;;;;;8.03;4.40;;;;;;;;;;5071599;28;20455;-63
2021/04/14 01:13:37;;;;;;;6.13;3.93;;;;;;;;;;5071912;28;20471;-65
2021/04/14 01:16:04;;;;;;;8.10;4.13;;;;;;;;;;5075340;28;20959;-64
2021/04/14 01:18:32;;;;;;;7.93;4.20;;;;;;;;;;5074880;28;20451;-63
2021/04/14 01:21:00;;;;;;;10.57;5.03;;;;;;;;;;5074715;28;20443;-64
2021/04/14 01:23:28;;;;;;;9.73;4.40;;;;;;;;;;5074347;28;20513;-64
2021/04/14 01:25:55;;;;;;;6.93;4.77;;;;;;;;;;5074528;28;20478;-64
2021/04/14 01:28:23;;;;;;;7.70;4.07;;;;;;;;;;5074235;28;20450;-64
2021/04/14 01:30:51;;;;;;;8.40;4.40;;;;;;;;;;5074244;28;20454;-63
2021/04/14 01:33:18;;;;;;;6.77;4.23;;;;;;;;;;5074294;28;20704;-62
2021/04/14 01:35:44;;;;;;;6.20;3.90;;;;;;;;;;5074244;28;20455;-64
2021/04/14 01:38:11;;;;;;;7.90;4.67;;;;;;;;;;5074003;28;20463;-63
2021/04/14 01:40:38;;;;;;;5.67;4.07;;;;;;;;;;5074171;28;21003;-64
2021/04/14 01:43:05;;;;;;;5.70;3.90;;;;;;;;;;5073941;28;21052;-63
2021/04/14 01:45:33;;;;;;;10.87;4.37;;;;;;;;;;5074093;28;20443;-62
2021/04/14 01:48:00;;;;;;;9.30;4.10;;;;;;;;;;5073583;28;20447;-63
2021/04/14 01:50:26;;;;;;;7.43;4.37;;;;;;;;;;5073905;28;20439;-64
2021/04/14 01:52:53;;;;;;;6.67;4.53;;;;;;;;;;5074134;28;20450;-63
2021/04/14 01:55:20;;;;;;;10.93;4.30;;;;;;;;;;5073776;28;20455;-63
2021/04/14 01:57:48;;;;;;;5.73;4.03;;;;;;;;;;5074014;28;20447;-63
2021/04/14 02:00:19;;;;;;;8.07;4.30;;;;;;;;;;5073606;28;20483;-62
2021/04/14 02:02:46;;;;;;;9.00;4.60;;;;;;;;;;5073699;28;20451;-62
2021/04/14 02:05:13;;;;;;;7.97;4.53;;;;;;;;;;5073377;28;20453;-64
2021/04/14 02:07:40;;;;;;;8.40;4.57;;;;;;;;;;5073869;28;20444;-63
2021/04/14 02:10:07;;;;;;;7.27;4.00;;;;;;;;;;5073478;28;20443;-63
2021/04/14 02:12:34;;;;;;;8.23;4.37;;;;;;;;;;5073747;28;20455;-64
2021/04/14 02:15:01;;;;;;;6.07;4.20;;;;;;;;;;5073660;28;20463;-63
2021/04/14 02:17:28;;;;;;;8.50;4.40;;;;;;;;;;5073230;28;20506;-64
2021/04/14 02:19:54;;;;;;;6.93;4.53;;;;;;;;;;5073053;28;20483;-63
2021/04/14 02:22:21;;;;;;;6.93;4.40;;;;;;;;;;5073429;28;20443;-63
2021/04/14 02:24:48;;;;;;;10.20;4.47;;;;;;;;;;5073322;28;20513;-64
2021/04/14 02:27:14;;;;;;;8.23;4.33;;;;;;;;;;5074101;28;20447;-63
2021/04/14 02:29:41;;;;;;;7.47;4.57;;;;;;;;;;5072775;28;20447;-63
2021/04/14 02:32:08;;;;;;;9.50;4.47;;;;;;;;;;5072953;28;20454;-63
2021/04/14 02:34:35;;;;;;;7.33;4.73;;;;;;;;;;5073099;28;20482;-62
2021/04/14 02:37:02;;;;;;;12.67;4.63;;;;;;;;;;5073377;28;20447;-63
2021/04/14 02:39:28;;;;;;;7.33;4.17;;;;;;;;;;5072685;28;20483;-63
2021/04/14 02:41:55;;;;;;;7.20;4.57;;;;;;;;;;5072875;28;20459;-63
2021/04/14 02:44:21;;;;;;;8.10;4.90;;;;;;;;;;5074390;28;20478;-63
2021/04/14 02:46:48;;;;;;;6.60;4.50;;;;;;;;;;5075696;28;20451;-63
2021/04/14 02:49:15;;;;;;;10.67;4.70;;;;;;;;;;5073658;28;20443;-63
2021/04/14 02:51:42;;;;;;;6.50;4.67;;;;;;;;;;5078076;28;20473;-63
2021/04/14 02:54:08;;;;;;;6.47;4.40;;;;;;;;;;5076542;28;20471;-64
2021/04/14 02:56:35;;;;;;;7.73;5.13;;;;;;;;;;5076330;28;20458;-65
2021/04/14 02:59:01;;;;;;;9.67;5.37;;;;;;;;;;5072803;28;20483;-62
2021/04/14 03:01:28;;;;;;;7.50;4.57;;;;;;;;;;5072450;28;20447;-63
2021/04/14 03:03:55;;;;;;;10.50;4.70;;;;;;;;;;5072544;28;20478;-64
2021/04/14 03:06:22;;;;;;;6.07;4.93;;;;;;;;;;5072557;28;20443;-64
2021/04/14 03:08:49;;;;;;;10.73;4.50;;;;;;;;;;5072151;28;20451;-63
2021/04/14 03:11:15;;;;;;;5.23;4.20;;;;;;;;;;5072495;28;20524;-63
2021/04/14 03:13:42;;;;;;;8.87;4.67;;;;;;;;;;5072271;28;20827;-62
2021/04/14 03:16:08;;;;;;;11.60;4.80;;;;;;;;;;5072247;28;20534;-63
2021/04/14 03:18:35;;;;;;;11.93;4.60;;;;;;;;;;5072162;28;20466;-63
2021/04/14 03:21:01;;;;;;;5.90;4.83;;;;;;;;;;5072268;28;20858;-63
2021/04/14 03:23:29;;;;;;;9.50;5.07;;;;;;;;;;5072211;28;20467;-63
2021/04/14 03:25:55;;;;;;;8.93;5.07;;;;;;;;;;5072246;28;20499;-63
2021/04/14 03:28:22;;;;;;;9.53;5.50;;;;;;;;;;5071971;28;20451;-63
2021/04/14 03:30:48;;;;;;;6.70;4.83;;;;;;;;;;5072138;28;20423;-64
2021/04/14 03:33:15;;;;;;;10.10;5.50;;;;;;;;;;5072078;28;20463;-63
2021/04/14 03:35:42;;;;;;;7.13;5.13;;;;;;;;;;5071907;28;20828;-63
2021/04/14 03:38:09;;;;;;;8.20;5.20;;;;;;;;;;5071354;28;20458;-62
2021/04/14 03:40:36;;;;;;;7.90;6.10;;;;;;;;;;5071792;28;20505;-64
2021/04/14 03:43:02;;;;;;;8.43;5.97;;;;;;;;;;5071750;28;20855;-63
2021/04/14 03:45:34;;;;;;;8.13;6.13;;;;;;;;;;5072168;28;20458;-64
2021/04/14 03:48:01;;;;;;;13.00;6.97;;;;;;;;;;5071881;28;20443;-64
2021/04/14 03:50:29;;;;;;;10.43;6.20;;;;;;;;;;5071879;28;20444;-64
2021/04/14 03:52:56;;;;;;;8.47;6.73;;;;;;;;;;5072166;28;20521;-63
2021/04/14 03:55:24;;;;;;;9.47;6.67;;;;;;;;;;5071858;28;20831;-63
2021/04/14 03:57:51;;;;;;;12.17;6.23;;;;;;;;;;5071838;28;20450;-64
2021/04/14 04:00:18;;;;;;;8.63;6.77;;;;;;;;;;5071444;28;20482;-64
2021/04/14 04:02:44;;;;;;;10.93;6.77;;;;;;;;;;5071739;28;20904;-64
2021/04/14 04:05:11;;;;;;;8.43;6.57;;;;;;;;;;5071911;28;20455;-63
2021/04/14 04:07:38;;;;;;;11.07;6.50;;;;;;;;;;5071953;28;20448;-64
2021/04/14 04:10:06;;;;;;;10.90;6.20;;;;;;;;;;5071357;28;20450;-64
2021/04/14 04:12:32;;;;;;;12.33;6.90;;;;;;;;;;5071723;28;20439;-64
2021/04/14 04:14:59;;;;;;;10.83;6.70;;;;;;;;;;5071808;28;20467;-64
2021/04/14 04:17:26;;;;;;;11.07;7.60;;;;;;;;;;5066315;28;20534;-64
2021/04/14 04:19:53;;;;;;;13.80;7.43;;;;;;;;;;5051118;28;20484;-61
2021/04/14 04:22:20;;;;;;;11.20;8.07;;;;;;;;;;5051355;28;20456;-63
2021/04/14 04:24:47;;;;;;;13.57;8.57;;;;;;;;;;5050989;28;20462;-64
2021/04/14 04:27:13;;;;;;;14.27;9.87;;;;;;;;;;5051594;28;20502;-64
2021/04/14 04:29:40;;;;;;;14.90;10.77;;;;;;;;;;5051074;28;20448;-63
2021/04/14 04:32:08;;;;;;;15.50;10.67;;;;;;;;;;5051223;28;20945;-64
2021/04/14 04:34:34;;;;;;;16.13;11.33;;;;;;;;;;5051209;28;20480;-63
2021/04/14 04:37:01;;;;;;;14.63;10.30;;;;;;;;;;5051331;28;20450;-63
2021/04/14 04:39:28;;;;;;;12.27;9.80;;;;;;;;;;5050783;28;20512;-63
2021/04/14 04:41:54;;;;;;;15.53;9.83;;;;;;;;;;5050923;28;20844;-63
2021/04/14 04:44:21;;;;;;;14.33;9.53;;;;;;;;;;5051013;28;21010;-64
2021/04/14 04:46:48;;;;;;;12.43;9.57;;;;;;;;;;5051112;28;21119;-64
2021/04/14 04:49:15;;;;;;;11.27;9.20;;;;;;;;;;5054188;28;20458;-63
2021/04/14 04:51:42;;;;;;;16.00;9.97;;;;;;;;;;5054857;28;20459;-63
2021/04/14 04:54:08;;;;;;;14.03;10.43;;;;;;;;;;5054923;28;20480;-63
2021/04/14 04:56:35;;;;;;;12.43;9.33;;;;;;;;;;5055177;28;20915;-63
2021/04/14 04:59:01;;;;;;;14.10;9.80;;;;;;;;;;5054462;28;20523;-64
2021/04/14 05:01:28;;;;;;;15.23;9.97;;;;;;;;;;5054873;28;20462;-63
2021/04/14 05:03:55;;;;;;;14.43;10.03;;;;;;;;;;5054555;28;20466;-63
2021/04/14 05:06:22;;;;;;;18.97;9.87;;;;;;;;;;5054595;28;20440;-63
2021/04/14 05:08:49;;;;;;;14.73;9.30;;;;;;;;;;5054935;28;20452;-63
2021/04/14 05:11:15;;;;;;;15.20;9.70;;;;;;;;;;5055014;28;20952;-64
2021/04/14 05:13:42;;;;;;;11.87;9.93;;;;;;;;;;5054765;28;20475;-63
2021/04/14 05:16:09;;;;;;;15.13;10.17;;;;;;;;;;5054925;28;20476;-62
2021/04/14 05:18:35;;;;;;;14.53;10.13;;;;;;;;;;5054710;28;20585;-63
2021/04/14 05:21:02;;;;;;;14.53;10.40;;;;;;;;;;5054098;28;20490;-63
2021/04/14 05:23:30;;;;;;;14.47;10.70;;;;;;;;;;5053402;28;20471;-64
2021/04/14 05:25:56;;;;;;;16.37;11.03;;;;;;;;;;5054283;28;20451;-64
2021/04/14 05:28:24;;;;;;;17.17;11.10;;;;;;;;;;5054191;28;20448;-62
2021/04/14 05:30:51;;;;;;;16.30;11.43;;;;;;;;;;5053833;28;20452;-64
2021/04/14 05:33:18;;;;;;;16.53;10.87;;;;;;;;;;5054104;28;20464;-62
2021/04/14 05:35:45;;;;;;;14.73;10.53;;;;;;;;;;5054109;28;20470;-63
2021/04/14 05:38:11;;;;;;;12.03;10.07;;;;;;;;;;5054028;28;20444;-64
2021/04/14 05:40:39;;;;;;;12.20;10.50;;;;;;;;;;5054151;28;20492;-63
2021/04/14 05:43:13;;;;;;;13.50;10.53;;;;;;;;;;5053990;28;20473;-63
2021/04/14 05:45:39;;;;;;;16.73;11.23;;;;;;;;;;5054024;28;20460;-63
2021/04/14 05:48:06;;;;;;;16.80;11.60;;;;;;;;;;5053857;28;20456;-63
2021/04/14 05:50:33;;;;;;;18.87;11.67;;;;;;;;;;5053900;28;20448;-64
2021/04/14 05:52:59;;;;;;;13.93;11.50;;;;;;;;;;5054016;28;20463;-63
2021/04/14 05:55:26;;;;;;;17.93;11.20;;;;;;;;;;5054066;28;20447;-63
2021/04/14 05:57:53;;;;;;;17.40;11.87;;;;;;;;;;5053812;28;20455;-63
2021/04/14 06:00:20;;;;;;;23.53;11.97;;;;;;;;;;5052726;28;20475;-62
2021/04/14 06:02:47;;;;;;;18.57;12.67;;;;;;;;;;5053594;28;20456;-63
2021/04/14 06:05:15;;;;;;;19.30;12.50;;;;;;;;;;5053746;28;20996;-62
2021/04/14 06:07:42;;;;;;;14.40;11.43;;;;;;;;;;5054004;28;20451;-63
2021/04/14 06:10:09;;;;;;;16.63;11.83;;;;;;;;;;5053788;28;20452;-62
2021/04/14 06:12:35;;;;;;;15.27;11.00;;;;;;;;;;5055183;28;20451;-63
2021/04/14 06:15:04;;;;;;;12.57;11.20;;;;;;;;;;5053707;28;20880;-63
2021/04/14 06:17:31;;;;;;;11.37;10.23;;;;;;;;;;5054309;28;20456;-63
2021/04/14 06:19:57;;;;;;;14.77;12.00;;;;;;;;;;5053252;28;20828;-63
2021/04/14 06:22:24;;;;;;;13.03;11.70;;;;;;;;;;5053577;28;20453;-63
2021/04/14 06:24:51;;;;;;;13.13;10.73;;;;;;;;;;5053452;28;20493;-63
2021/04/14 06:27:28;;;;;;;14.73;11.27;;;;;;;;;;5053260;28;20449;-63
2021/04/14 06:29:55;;;;;;;11.83;9.80;;;;;;;;;;5052773;28;20444;-63
2021/04/14 06:32:22;;;;;;;11.77;9.40;;;;;;;;;;5053279;28;20456;-63
2021/04/14 06:34:51;;;;;;;14.30;9.63;;;;;;;;;;5053223;28;20514;-62
2021/04/14 06:37:18;;;;;;;11.13;9.10;;;;;;;;;;5053147;28;20454;-62
2021/04/14 06:39:50;;;;;;;12.37;9.80;;;;;;;;;;5052787;28;20491;-63
2021/04/14 06:42:23;;;;;;;11.00;8.50;;;;;;;;;;5052636;28;20468;-63
2021/04/14 06:44:53;;;;;;;9.23;7.67;;;;;;;;;;5053117;28;20553;-63
2021/04/14 06:47:24;;;;;;;8.67;7.73;;;;;;;;;;5054446;28;20462;-63
2021/04/14 06:49:55;;;;;;;8.17;7.03;;;;;;;;;;5058065;28;20440;-63
2021/04/14 06:52:24;;;;;;;10.73;8.43;;;;;;;;;;5057513;28;20452;-63
2021/04/14 06:54:52;;;;;;;10.27;7.93;;;;;;;;;;5056780;28;20467;-63
2021/04/14 06:57:20;;;;;;;13.70;8.60;;;;;;;;;;5060363;28;20459;-63
2021/04/14 06:59:48;;;;;;;11.80;8.37;;;;;;;;;;5063955;28;20511;-64
2021/04/14 07:02:19;;;;;;;12.57;8.60;;;;;;;;;;5064278;28;20463;-64
2021/04/14 07:04:48;;;;;;;12.50;9.00;;;;;;;;;;5054829;28;20467;-63
2021/04/14 07:07:19;;;;;;;10.53;9.17;;;;;;;;;;5053007;28;20550;-64
2021/04/14 07:09:47;;;;;;;11.20;8.90;;;;;;;;;;5052358;28;20451;-62
2021/04/14 07:12:15;;;;;;;11.57;9.30;;;;;;;;;;5051766;28;20443;-63
2021/04/14 07:14:42;;;;;;;12.83;9.60;;;;;;;;;;5052456;28;20502;-63
2021/04/14 07:17:13;;;;;;;11.63;10.00;;;;;;;;;;5052447;28;20949;-63
2021/04/14 07:19:54;;;;;;;15.23;9.77;;;;;;;;;;5051819;28;20487;-63
2021/04/14 07:22:24;;;;;;;15.20;9.30;;;;;;;;;;5052650;28;20485;-62
2021/04/14 07:24:52;;;;;;;13.83;9.50;;;;;;;;;;5052030;28;21011;-63
2021/04/14 07:27:27;;;;;;;12.80;8.43;;;;;;;;;;5052435;28;20502;-63
2021/04/14 07:29:57;;;;;;;18.37;9.47;;;;;;;;;;5052106;28;20448;-63
2021/04/14 07:32:27;;;;;;;15.70;9.10;;;;;;;;;;5051930;28;20873;-62
2021/04/14 07:35:15;;;;;;;16.17;8.30;;;;;;;;;;5052674;28;20856;-62
2021/04/14 07:37:45;;;;;;;14.23;10.00;;;;;;;;;;5048866;28;20975;-63
2021/04/14 07:40:17;;;;;;;16.87;10.43;;;;;;;;;;5052105;28;20487;-63
2021/04/14 07:42:46;;;;;;;18.40;11.33;;;;;;;;;;5052190;28;20575;-63
2021/04/14 07:45:18;;;;;;;18.20;11.50;;;;;;;;;;5052830;28;20479;-63
2021/04/14 07:47:46;;;;;;;25.17;12.20;;;;;;;;;;5052592;28;20448;-62
2021/04/14 07:50:13;;;;;;;15.80;10.43;;;;;;;;;;5052586;28;20520;-62
2021/04/14 07:52:40;;;;;;;17.03;11.60;;;;;;;;;;5052419;28;20455;-63
2021/04/14 07:55:20;;;;;;;17.53;12.53;;;;;;;;;;5052102;28;20537;-63
2021/04/14 07:57:46;;;;;;;18.07;12.80;;;;;;;;;;5051982;28;20459;-63
2021/04/14 08:00:14;;;;;;;19.53;12.87;;;;;;;;;;5051525;28;20491;-63
2021/04/14 08:02:41;;;;;;;17.67;12.13;;;;;;;;;;5051851;28;20452;-62
2021/04/14 08:05:10;;;;;;;19.17;11.23;;;;;;;;;;5051849;28;20448;-63
2021/04/14 08:07:38;;;;;;;12.90;8.30;;;;;;;;;;5051802;28;20455;-63
2021/04/14 08:10:09;;;;;;;15.83;8.57;;;;;;;;;;5051233;28;20936;-64
2021/04/14 08:12:37;;;;;;;15.00;9.10;;;;;;;;;;5052315;28;20800;-62
2021/04/14 08:15:08;;;;;;;12.13;8.70;;;;;;;;;;5051561;28;20530;-63
2021/04/14 08:17:35;;;;;;;10.73;8.20;;;;;;;;;;5051901;28;20790;-63
2021/04/14 08:20:04;;;;;;;14.93;9.07;;;;;;;;;;5051159;28;20959;-63
2021/04/14 08:22:31;;;;;;;15.40;9.73;;;;;;;;;;5052902;28;20467;-63
2021/04/14 08:25:01;;;;;;;13.40;8.67;;;;;;;;;;5055846;28;20491;-62
2021/04/14 08:27:35;;;;;;;12.70;9.43;;;;;;;;;;5055960;28;20484;-63
2021/04/14 08:30:04;;;;;;;11.87;9.03;;;;;;;;;;5055591;28;20446;-61
2021/04/14 08:32:31;;;;;;;13.83;8.73;;;;;;;;;;5055859;28;20448;-63
2021/04/14 08:34:59;;;;;;;15.40;9.67;;;;;;;;;;5055396;28;20908;-62
2021/04/14 08:37:27;;;;;;;13.27;10.03;;;;;;;;;;5055637;28;21098;-62
2021/04/14 08:39:55;;;;;;;14.67;9.50;;;;;;;;;;5054983;28;20999;-64
2021/04/14 08:42:27;;;;;;;12.47;9.60;;;;;;;;;;5055270;28;20464;-63
2021/04/14 08:44:54;;;;;;;12.20;9.13;;;;;;;;;;5055136;28;20476;-63
2021/04/14 08:47:28;;;;;;;13.03;10.03;;;;;;;;;;5055069;28;20448;-62
2021/04/14 08:49:57;;;;;;;14.87;8.93;;;;;;;;;;5054913;28;20963;-63
2021/04/14 08:52:24;;;;;;;13.87;8.20;;;;;;;;;;5055358;28;20502;-63
2021/04/14 08:54:50;;;;;;;16.13;9.57;;;;;;;;;;5055202;28;20474;-63
2021/04/14 08:57:18;;;;;;;11.43;7.33;;;;;;;;;;5055085;28;20493;-64
2021/04/14 08:59:45;;;;;;;12.43;7.63;;;;;;;;;;5054640;28;20487;-63
2021/04/14 09:02:13;;;;;;;12.13;8.57;;;;;;;;;;5055478;28;20443;-63
2021/04/14 09:04:44;;;;;;;12.63;9.13;;;;;;;;;;5055726;28;20472;-63
2021/04/14 09:07:10;;;;;;;12.70;7.77;;;;;;;;;;5055146;28;20618;-63
2021/04/14 09:09:43;;;;;;;12.63;8.03;;;;;;;;;;5054470;28;20224;-63
2021/04/14 09:12:10;;;;;;;11.40;6.40;;;;;;;;;;5054658;28;20448;-63
2021/04/14 09:14:37;;;;;;;10.67;7.50;;;;;;;;;;5054657;28;20251;-62
2021/04/14 09:17:05;;;;;;;15.20;8.50;;;;;;;;;;5054627;28;20218;-63
2021/04/14 09:19:34;;;;;;;11.07;7.90;;;;;;;;;;5054189;28;20229;-63
2021/04/14 09:22:03;;;;;;;10.47;7.63;;;;;;;;;;5054679;28;20667;-63
2021/04/14 09:24:31;;;;;;;14.60;8.00;;;;;;;;;;5054097;28;20228;-63
2021/04/14 09:26:59;;;;;;;11.93;7.93;;;;;;;;;;5054291;28;20365;-63
2021/04/14 09:29:27;;;;;;;12.70;8.47;;;;;;;;;;5054057;28;20585;-62
2021/04/14 09:31:56;;;;;;;13.83;8.23;;;;;;;;;;5054377;28;20211;-63
2021/04/14 09:34:32;;;;;;;12.43;8.00;;;;;;;;;;5053181;28;20232;-62
2021/04/14 09:37:00;;;;;;;12.33;8.77;;;;;;;;;;5054281;28;20669;-63
2021/04/14 09:39:33;;;;;;;13.23;8.40;;;;;;;;;;5053806;28;20214;-63
2021/04/14 09:42:00;;;;;;;14.40;8.63;;;;;;;;;;5054105;28;20224;-63
2021/04/14 09:44:35;;;;;;;11.43;8.40;;;;;;;;;;5054074;28;20231;-64
2021/04/14 09:47:13;;;;;;;16.63;9.33;;;;;;;;;;5053983;28;20212;-63
2021/04/14 09:49:41;;;;;;;12.67;8.63;;;;;;;;;;5053628;28;20249;-63
2021/04/14 09:52:20;;;;;;;14.40;9.03;;;;;;;;;;5053961;28;20206;-63
2021/04/14 09:54:48;;;;;;;11.93;8.70;;;;;;;;;;5054271;28;20222;-63
2021/04/14 09:57:16;;;;;;;12.90;9.73;;;;;;;;;;5053830;28;20257;-63
2021/04/14 09:59:44;;;;;;;12.17;8.83;;;;;;;;;;5053705;28;20231;-63
2021/04/14 10:02:13;;;;;;;13.23;9.80;;;;;;;;;;5053661;28;20257;-64
2021/04/14 10:04:40;;;;;;;13.57;10.00;;;;;;;;;;5053795;28;20724;-63
2021/04/14 10:07:11;;;;;;;16.13;9.40;;;;;;;;;;5053839;28;20236;-63
2021/04/14 10:09:38;;;;;;;13.80;8.30;;;;;;;;;;5053720;28;20298;-63
2021/04/14 10:12:14;;;;;;;15.00;9.03;;;;;;;;;;5053879;28;20235;-63
2021/04/14 10:14:42;;;;;;;14.50;10.00;;;;;;;;;;5053672;28;20227;-63
2021/04/14 10:17:09;;;;;;;14.40;9.17;;;;;;;;;;5054323;28;20265;-64
2021/04/14 10:19:36;;;;;;;14.80;9.60;;;;;;;;;;5053318;28;20602;-64
2021/04/14 10:22:06;;;;;;;14.73;9.70;;;;;;;;;;5054054;28;20271;-62
2021/04/14 10:24:32;;;;;;;12.37;9.20;;;;;;;;;;5053846;28;20248;-63
2021/04/14 10:26:59;;;;;;;11.63;8.90;;;;;;;;;;5053751;28;20209;-63
2021/04/14 10:29:28;;;;;;;12.57;9.10;;;;;;;;;;5053374;28;20270;-63
2021/04/14 10:31:56;;;;;;;12.97;9.43;;;;;;;;;;5053994;28;20214;-63
2021/04/14 10:34:27;;;;;;;16.20;9.93;;;;;;;;;;5053868;28;20627;-63
2021/04/14 10:36:56;;;;;;;13.40;10.70;;;;;;;;;;5053842;28;20600;-63
2021/04/14 10:39:27;;;;;;;13.40;10.10;;;;;;;;;;5053080;28;20827;-64
2021/04/14 10:41:54;;;;;;;16.60;10.30;;;;;;;;;;5053345;28;20214;-64
2021/04/14 10:44:22;;;;;;;12.97;10.40;;;;;;;;;;5053814;28;20237;-64
2021/04/14 10:46:49;;;;;;;13.40;9.17;;;;;;;;;;5053480;28;20304;-63
2021/04/14 10:49:23;;;;;;;13.67;10.07;;;;;;;;;;5053751;28;20241;-63
2021/04/14 10:51:53;;;;;;;12.37;8.40;;;;;;;;;;5053255;28;20555;-63
2021/04/14 10:54:21;;;;;;;11.27;9.10;;;;;;;;;;5053481;28;20277;-63
2021/04/14 10:56:57;;;;;;;12.10;8.97;;;;;;;;;;5054109;28;20213;-62
2021/04/14 10:59:23;;;;;;;12.80;9.30;;;;;;;;;;5054441;28;20214;-62
2021/04/14 11:01:51;;;;;;;11.43;8.17;;;;;;;;;;5054129;28;20238;-63
2021/04/14 11:04:26;;;;;;;13.27;10.07;;;;;;;;;;5053965;28;20739;-62
2021/04/14 11:06:54;;;;;;;17.43;10.73;;;;;;;;;;5054338;28;20591;-63
2021/04/14 11:09:22;;;;;;;13.90;9.00;;;;;;;;;;5054206;28;20206;-63
2021/04/14 11:11:49;;;;;;;15.43;9.90;;;;;;;;;;5054087;28;20474;-63
2021/04/14 11:14:17;;;;;;;13.83;10.43;;;;;;;;;;5054406;28;20486;-62
2021/04/14 11:16:45;;;;;;;12.33;9.33;;;;;;;;;;5059770;28;20205;-67
2021/04/14 11:19:14;;;;;;;13.23;10.03;;;;;;;;;;5061342;28;20213;-66
2021/04/14 11:21:41;;;;;;;11.97;9.63;;;;;;;;;;5056040;28;20488;-61
2021/04/14 11:24:09;;;;;;;14.27;10.50;;;;;;;;;;5052632;28;20243;-62
2021/04/14 11:26:39;;;;;;;13.70;9.30;;;;;;;;;;5052071;28;20590;-64
2021/04/14 11:29:07;;;;;;;11.10;7.03;;;;;;;;;;5071378;28;20213;-64
2021/04/14 11:31:34;;;;;;;9.57;6.73;;;;;;;;;;5071915;28;20202;-61
2021/04/14 11:34:03;;;;;;;10.33;7.97;;;;;;;;;;5071282;28;20287;-63
2021/04/14 11:36:32;;;;;;;11.93;8.07;;;;;;;;;;5071919;28;20207;-62
2021/04/14 11:39:00;;;;;;;9.20;6.87;;;;;;;;;;5071235;28;20293;-69
2021/04/14 11:41:29;;;;;;;10.67;6.97;;;;;;;;;;5071124;28;20589;-69
2021/04/14 11:43:56;;;;;;;12.17;7.60;;;;;;;;;;5071648;28;20233;-70
2021/04/14 11:46:26;;;;;;;9.03;7.73;;;;;;;;;;5071329;28;20201;-69
2021/04/14 11:48:56;;;;;;;11.70;8.13;;;;;;;;;;5070702;28;20259;-66
2021/04/14 11:51:28;;;;;;;12.37;8.57;;;;;;;;;;5070811;28;20208;-66
2021/04/14 11:53:57;;;;;;;11.70;7.83;;;;;;;;;;5070571;28;20744;-64
2021/04/14 11:56:31;;;;;;;12.00;7.60;;;;;;;;;;5070567;28;20208;-63
2021/04/14 11:58:58;;;;;;;9.97;7.50;;;;;;;;;;5069852;28;20211;-61
2021/04/14 12:01:26;;;;;;;8.80;6.37;;;;;;;;;;5071462;28;20233;-62
2021/04/14 12:03:52;;;;;;;9.23;5.97;;;;;;;;;;5071087;28;20230;-60
2021/04/14 12:06:20;;;;;;;10.00;5.90;;;;;;;;;;5071273;28;20579;-63
2021/04/14 12:08:47;;;;;;;6.40;5.23;;;;;;;;;;5070853;28;20235;-61
2021/04/14 12:11:19;;;;;;;7.40;5.60;;;;;;;;;;5071086;28;20203;-58
2021/04/14 12:13:46;;;;;;;7.93;6.10;;;;;;;;;;5071200;28;20226;-61
2021/04/14 12:16:12;;;;;;;8.23;6.30;;;;;;;;;;5073189;28;20209;-62
2021/04/14 12:18:39;;;;;;;9.17;5.80;;;;;;;;;;5073953;28;20201;-59
2021/04/14 12:21:06;;;;;;;6.90;5.90;;;;;;;;;;5072164;28;20225;-62
2021/04/14 12:23:32;;;;;;;10.60;6.20;;;;;;;;;;5071402;28;20226;-62
2021/04/14 12:25:59;;;;;;;9.47;7.13;;;;;;;;;;5071486;28;20625;-62
2021/04/14 12:28:26;;;;;;;9.50;7.00;;;;;;;;;;5070522;28;20960;-63
2021/04/14 12:30:53;;;;;;;7.40;5.63;;;;;;;;;;5070850;28;20293;-62
2021/04/14 12:33:19;;;;;;;11.67;7.13;;;;;;;;;;5070582;28;20268;-62
2021/04/14 12:35:46;;;;;;;7.80;5.37;;;;;;;;;;5070983;28;20599;-61
2021/04/14 12:38:13;;;;;;;10.67;5.90;;;;;;;;;;5070328;28;20267;-61
2021/04/14 12:40:39;;;;;;;8.70;6.23;;;;;;;;;;5070092;28;20234;-62
2021/04/14 12:43:06;;;;;;;7.97;6.20;;;;;;;;;;5071172;28;20225;-63
2021/04/14 12:45:36;;;;;;;8.73;6.50;;;;;;;;;;5070855;28;20216;-62
2021/04/14 12:48:03;;;;;;;8.50;6.03;;;;;;;;;;5070370;28;20208;-60
2021/04/14 12:50:30;;;;;;;9.03;6.13;;;;;;;;;;5070230;28;20201;-61
2021/04/14 12:52:58;;;;;;;8.77;5.93;;;;;;;;;;5070853;28;20209;-61
2021/04/14 12:55:28;;;;;;;7.27;5.73;;;;;;;;;;5071239;28;20205;-59
2021/04/14 12:57:56;;;;;;;9.43;6.20;;;;;;;;;;5070150;28;20208;-61
2021/04/14 13:00:25;;;;;;;8.33;6.23;;;;;;;;;;5070104;28;20596;-60
2021/04/14 13:02:55;;;;;;;10.53;5.93;;;;;;;;;;5070405;28;20205;-62
2021/04/14 13:05:23;;;;;;;9.20;6.20;;;;;;;;;;5070404;28;20645;-62
2021/04/14 13:07:51;;;;;;;8.53;5.70;;;;;;;;;;5070028;28;20220;-61
2021/04/14 13:10:19;;;;;;;10.57;8.03;;;;;;;;;;5073416;28;20209;-61
2021/04/14 13:12:46;;;;;;;9.83;7.67;;;;;;;;;;5074089;28;20641;-63
2021/04/14 13:15:15;;;;;;;8.93;6.77;;;;;;;;;;5074043;28;20720;-65
2021/04/14 13:17:44;;;;;;;9.47;7.23;;;;;;;;;;5074069;28;20216;-64
2021/04/14 13:20:13;;;;;;;9.43;7.43;;;;;;;;;;5073153;28;20220;-65
2021/04/14 13:22:40;;;;;;;9.17;7.20;;;;;;;;;;5074063;28;20875;-60
2021/04/14 13:25:09;;;;;;;9.87;7.67;;;;;;;;;;5073568;28;20221;-62
2021/04/14 13:27:41;;;;;;;11.57;7.90;;;;;;;;;;5073955;28;20201;-61
2021/04/14 13:30:11;;;;;;;12.03;8.17;;;;;;;;;;5073478;28;20197;-64
2021/04/14 13:32:39;;;;;;;9.53;7.93;;;;;;;;;;5073089;28;20212;-62
2021/04/14 13:35:11;;;;;;;10.77;8.47;;;;;;;;;;5073988;28;20229;-63
2021/04/14 13:37:41;;;;;;;15.20;7.60;;;;;;;;;;5073845;28;20232;-64
2021/04/14 13:40:11;;;;;;;12.70;8.60;;;;;;;;;;5073131;28;20224;-63
2021/04/14 13:42:39;;;;;;;9.33;8.33;;;;;;;;;;5073180;28;20575;-65
2021/04/14 13:45:10;;;;;;;10.40;8.43;;;;;;;;;;5073477;28;20575;-65
2021/04/14 13:47:40;;;;;;;7.30;5.23;;;;;;;;;;5073696;28;20599;-65
2021/04/14 13:50:09;;;;;;;7.73;4.83;;;;;;;;;;5072931;28;20215;-64
2021/04/14 13:52:37;;;;;;;6.97;4.87;;;;;;;;;;5073146;28;20219;-61
2021/04/14 13:55:05;;;;;;;6.70;4.73;;;;;;;;;;5073301;28;20222;-60
2021/04/14 13:57:35;;;;;;;6.37;5.50;;;;;;;;;;5073153;28;20219;-61
2021/04/14 14:00:06;;;;;;;7.93;6.20;;;;;;;;;;5072762;28;20221;-60
2021/04/14 14:02:34;;;;;;;10.47;8.97;;;;;;;;;;5073814;28;20866;-63
2021/04/14 14:05:02;;;;;;;10.50;9.37;;;;;;;;;;5072693;28;20469;-62
2021/04/14 14:07:31;;;;;;;11.53;9.33;;;;;;;;;;5072726;28;20462;-62
2021/04/14 14:10:00;;;;;;;12.80;10.17;;;;;;;;;;5072270;28;20232;-62
2021/04/14 14:12:29;;;;;;;12.27;9.67;;;;;;;;;;5072501;28;20455;-62
2021/04/14 14:14:57;;;;;;;8.80;6.77;;;;;;;;;;5073138;28;20517;-61
2021/04/14 14:17:24;;;;;;;7.00;5.90;;;;;;;;;;5059150;28;20448;-60
2021/04/14 14:19:52;;;;;;;6.40;4.93;;;;;;;;;;5052357;28;20459;-58
2021/04/14 14:22:21;;;;;;;8.93;4.73;;;;;;;;;;5052472;28;20822;-63
2021/04/14 14:24:48;;;;;;;8.00;6.90;;;;;;;;;;5052339;28;20843;-62
2021/04/14 14:27:14;;;;;;;8.07;7.20;;;;;;;;;;5053081;28;21025;-64
2021/04/14 14:29:42;;;;;;;8.37;7.03;;;;;;;;;;5051371;28;20960;-65
2021/04/14 14:32:09;;;;;;;13.07;9.53;;;;;;;;;;5052784;28;20448;-65
2021/04/14 14:34:37;;;;;;;15.77;14.03;;;;;;;;;;5052529;28;20518;-64
2021/04/14 14:37:10;;;;;;;18.57;16.57;;;;;;;;;;5052489;28;20456;-64